Aérodrome :
LOGIN :

S'inscrire | Disclaimer

   EN    FR    IT 

 










Légende :    VFR   VFR Marginal   IFR   IFR Intensif   IFR Très Intensif
Visi : 
Plafond : 
>= 8 km
>= 3000ft
5 à 8 km
1000 à 3000 ft
1500m à 5 km
500 à 1000 ft
800 à 1500m
200 à 500 ft
< 800m
< 200 ft
Symboles :   Orages  Brouillard  Fortes neiges  Fortes précipitations  Vent > 20 kt
SIGMETs :   Divers  Orages  Givrage  Turbulence  Onde Orograph.  Cendres Volcan.







- Altitude de l'aérodrome : 17 ft
- Code IATA : CPH


EKCH - København - Kastrup (Copenhagen)

DERNIER METAR :
  • 261750Z AUTO 31015KT 290V350 9999 FEW024/// 21/15 Q1018 NOSIG

METARs EXPIRÉS :
  • 261720Z AUTO 31015KT 9999 BKN023/// 21/16 Q1018 NOSIG
  • 261650Z AUTO 32014KT 9999 BKN023/// 22/16 Q1018 NOSIG
  • 261620Z AUTO 31015KT 280V340 9999 BKN026/// 23/16 Q1018 TEMPO 31015G25KT
  • 261550Z AUTO 31016KT 9999 FEW026/// 23/16 Q1018 TEMPO 31015G25KT
  • 261520Z AUTO 31015G25KT 280V340 9999 FEW027/// 23/16 Q1018 NOSIG

TAF TAF EKCH
Valide du 26 à 18h jusqu'au 27 à 18h UTC


261712Z 2618/2718 30012KT 9999 SCT020
Pas de NOTAMs connus pour ce terrain.



MET'MAP, la Météo Aéronautique d'un coup d'oeil ! - Copyright ORBIFLY Décembre 2007 - Disclaimer

ORBIFLY MET'MAP TEAM :

Programmation & Développement : Alexandra Zaïnal
Conception & Développement : Baudouin d'Aumeries
Co-Programmation & Développement : Marc-Olivier Méhu
Soutien technique & logistique : Manuel Goepfert

Contact : metmap@orbifly.com




SOURCES & CREDITS :

   NOAA